sensor_id;sensor_type;location;lat;lon;timestamp;P1;durP1;ratioP1;P2;durP2;ratioP2
61085;SDS011;46967;48.876;2.136;2024-02-26T00:00:35;3.15;;;1.52;;
61085;SDS011;46967;48.876;2.136;2024-02-26T00:03:01;4.57;;;1.40;;
61085;SDS011;46967;48.876;2.136;2024-02-26T00:05:26;4.50;;;1.88;;
61085;SDS011;46967;48.876;2.136;2024-02-26T00:07:52;2.50;;;1.45;;
61085;SDS011;46967;48.876;2.136;2024-02-26T00:10:17;3.42;;;1.25;;
61085;SDS011;46967;48.876;2.136;2024-02-26T00:12:42;1.60;;;1.20;;
61085;SDS011;46967;48.876;2.136;2024-02-26T00:15:08;4.68;;;1.63;;
61085;SDS011;46967;48.876;2.136;2024-02-26T00:17:34;3.70;;;1.40;;
61085;SDS011;46967;48.876;2.136;2024-02-26T00:20:00;2.63;;;1.40;;
61085;SDS011;46967;48.876;2.136;2024-02-26T00:22:29;3.78;;;1.45;;
61085;SDS011;46967;48.876;2.136;2024-02-26T00:24:54;4.68;;;1.63;;
61085;SDS011;46967;48.876;2.136;2024-02-26T00:27:20;4.22;;;1.77;;
61085;SDS011;46967;48.876;2.136;2024-02-26T00:29:45;4.28;;;1.60;;
61085;SDS011;46967;48.876;2.136;2024-02-26T00:32:10;5.13;;;2.72;;
61085;SDS011;46967;48.876;2.136;2024-02-26T00:34:35;5.22;;;2.20;;
61085;SDS011;46967;48.876;2.136;2024-02-26T00:37:01;5.90;;;2.10;;
61085;SDS011;46967;48.876;2.136;2024-02-26T00:39:27;6.22;;;1.90;;
61085;SDS011;46967;48.876;2.136;2024-02-26T00:41:52;3.53;;;1.48;;
61085;SDS011;46967;48.876;2.136;2024-02-26T00:44:17;5.18;;;1.73;;
61085;SDS011;46967;48.876;2.136;2024-02-26T00:46:43;4.32;;;1.50;;
61085;SDS011;46967;48.876;2.136;2024-02-26T00:49:08;5.80;;;1.73;;
61085;SDS011;46967;48.876;2.136;2024-02-26T00:51:33;6.55;;;1.60;;
61085;SDS011;46967;48.876;2.136;2024-02-26T00:53:58;6.13;;;1.80;;
61085;SDS011;46967;48.876;2.136;2024-02-26T00:56:24;6.60;;;1.92;;
61085;SDS011;46967;48.876;2.136;2024-02-26T00:58:49;4.18;;;1.65;;
61085;SDS011;46967;48.876;2.136;2024-02-26T01:01:14;6.05;;;1.95;;
61085;SDS011;46967;48.876;2.136;2024-02-26T01:03:40;4.18;;;1.77;;
61085;SDS011;46967;48.876;2.136;2024-02-26T01:06:05;5.45;;;1.52;;
61085;SDS011;46967;48.876;2.136;2024-02-26T01:08:30;6.63;;;1.60;;
61085;SDS011;46967;48.876;2.136;2024-02-26T01:10:56;4.20;;;1.10;;
61085;SDS011;46967;48.876;2.136;2024-02-26T01:13:22;2.53;;;1.10;;
61085;SDS011;46967;48.876;2.136;2024-02-26T01:15:47;4.93;;;1.45;;
61085;SDS011;46967;48.876;2.136;2024-02-26T01:18:13;4.97;;;1.75;;
61085;SDS011;46967;48.876;2.136;2024-02-26T01:20:38;5.53;;;2.08;;
61085;SDS011;46967;48.876;2.136;2024-02-26T01:23:03;5.72;;;1.50;;
61085;SDS011;46967;48.876;2.136;2024-02-26T01:25:29;5.60;;;1.30;;
61085;SDS011;46967;48.876;2.136;2024-02-26T01:27:54;4.88;;;1.48;;
61085;SDS011;46967;48.876;2.136;2024-02-26T01:30:19;5.25;;;1.40;;
61085;SDS011;46967;48.876;2.136;2024-02-26T01:32:45;3.17;;;1.52;;
61085;SDS011;46967;48.876;2.136;2024-02-26T01:35:10;4.45;;;1.50;;
61085;SDS011;46967;48.876;2.136;2024-02-26T01:37:37;3.20;;;1.35;;
61085;SDS011;46967;48.876;2.136;2024-02-26T01:40:03;5.00;;;1.63;;
61085;SDS011;46967;48.876;2.136;2024-02-26T01:42:31;3.45;;;1.45;;
61085;SDS011;46967;48.876;2.136;2024-02-26T01:44:57;8.35;;;1.42;;
61085;SDS011;46967;48.876;2.136;2024-02-26T01:47:23;6.10;;;1.55;;
61085;SDS011;46967;48.876;2.136;2024-02-26T01:49:49;5.03;;;1.33;;
61085;SDS011;46967;48.876;2.136;2024-02-26T01:52:14;7.57;;;1.63;;
61085;SDS011;46967;48.876;2.136;2024-02-26T01:54:40;5.90;;;1.45;;
61085;SDS011;46967;48.876;2.136;2024-02-26T01:57:10;4.70;;;1.30;;
61085;SDS011;46967;48.876;2.136;2024-02-26T01:59:36;7.43;;;1.40;;
61085;SDS011;46967;48.876;2.136;2024-02-26T02:02:03;8.10;;;1.55;;
61085;SDS011;46967;48.876;2.136;2024-02-26T02:04:30;5.72;;;1.20;;
61085;SDS011;46967;48.876;2.136;2024-02-26T02:06:55;12.25;;;1.77;;
61085;SDS011;46967;48.876;2.136;2024-02-26T02:09:23;5.70;;;1.50;;
61085;SDS011;46967;48.876;2.136;2024-02-26T02:11:48;7.53;;;1.65;;
61085;SDS011;46967;48.876;2.136;2024-02-26T02:14:14;7.32;;;1.40;;
61085;SDS011;46967;48.876;2.136;2024-02-26T02:16:40;4.95;;;1.15;;
61085;SDS011;46967;48.876;2.136;2024-02-26T02:19:05;4.53;;;1.25;;
61085;SDS011;46967;48.876;2.136;2024-02-26T02:21:31;5.85;;;1.58;;
61085;SDS011;46967;48.876;2.136;2024-02-26T02:23:56;9.25;;;1.50;;
61085;SDS011;46967;48.876;2.136;2024-02-26T02:26:21;6.70;;;1.33;;
61085;SDS011;46967;48.876;2.136;2024-02-26T02:28:47;6.25;;;1.35;;
61085;SDS011;46967;48.876;2.136;2024-02-26T02:31:13;6.15;;;1.30;;
61085;SDS011;46967;48.876;2.136;2024-02-26T02:33:39;7.53;;;1.40;;
61085;SDS011;46967;48.876;2.136;2024-02-26T02:36:05;8.80;;;1.40;;
61085;SDS011;46967;48.876;2.136;2024-02-26T02:38:34;9.02;;;1.85;;
61085;SDS011;46967;48.876;2.136;2024-02-26T02:41:00;7.82;;;1.20;;
61085;SDS011;46967;48.876;2.136;2024-02-26T02:43:25;6.40;;;1.70;;
61085;SDS011;46967;48.876;2.136;2024-02-26T02:45:51;8.10;;;1.83;;
61085;SDS011;46967;48.876;2.136;2024-02-26T02:48:16;7.40;;;2.08;;
61085;SDS011;46967;48.876;2.136;2024-02-26T02:50:41;8.95;;;1.55;;
61085;SDS011;46967;48.876;2.136;2024-02-26T02:53:07;5.22;;;0.90;;
61085;SDS011;46967;48.876;2.136;2024-02-26T02:55:32;8.48;;;1.73;;
61085;SDS011;46967;48.876;2.136;2024-02-26T02:57:57;11.73;;;2.85;;
61085;SDS011;46967;48.876;2.136;2024-02-26T03:00:23;8.23;;;1.80;;
61085;SDS011;46967;48.876;2.136;2024-02-26T03:02:51;7.68;;;1.75;;
61085;SDS011;46967;48.876;2.136;2024-02-26T03:05:16;10.05;;;1.60;;
61085;SDS011;46967;48.876;2.136;2024-02-26T03:07:42;8.43;;;1.88;;
61085;SDS011;46967;48.876;2.136;2024-02-26T03:10:07;10.52;;;1.67;;
61085;SDS011;46967;48.876;2.136;2024-02-26T03:12:33;6.22;;;1.30;;
61085;SDS011;46967;48.876;2.136;2024-02-26T03:14:59;10.73;;;2.08;;
61085;SDS011;46967;48.876;2.136;2024-02-26T03:17:27;8.90;;;1.35;;
61085;SDS011;46967;48.876;2.136;2024-02-26T03:19:53;8.57;;;1.30;;
61085;SDS011;46967;48.876;2.136;2024-02-26T03:22:19;9.38;;;1.50;;
61085;SDS011;46967;48.876;2.136;2024-02-26T03:24:45;6.07;;;1.00;;
61085;SDS011;46967;48.876;2.136;2024-02-26T03:27:10;9.07;;;1.92;;
61085;SDS011;46967;48.876;2.136;2024-02-26T03:29:37;12.27;;;1.55;;
61085;SDS011;46967;48.876;2.136;2024-02-26T03:32:02;8.63;;;1.45;;
61085;SDS011;46967;48.876;2.136;2024-02-26T03:34:28;6.97;;;1.38;;
61085;SDS011;46967;48.876;2.136;2024-02-26T03:36:55;9.23;;;1.10;;
61085;SDS011;46967;48.876;2.136;2024-02-26T03:39:20;7.95;;;1.27;;
61085;SDS011;46967;48.876;2.136;2024-02-26T03:41:45;8.10;;;1.40;;
61085;SDS011;46967;48.876;2.136;2024-02-26T03:44:11;4.93;;;1.20;;
61085;SDS011;46967;48.876;2.136;2024-02-26T03:46:36;8.77;;;1.42;;
61085;SDS011;46967;48.876;2.136;2024-02-26T03:49:01;6.30;;;1.30;;
61085;SDS011;46967;48.876;2.136;2024-02-26T03:51:27;7.28;;;1.63;;
61085;SDS011;46967;48.876;2.136;2024-02-26T03:53:56;6.40;;;1.48;;
61085;SDS011;46967;48.876;2.136;2024-02-26T03:56:25;6.63;;;1.50;;
61085;SDS011;46967;48.876;2.136;2024-02-26T03:58:51;8.00;;;1.13;;
61085;SDS011;46967;48.876;2.136;2024-02-26T04:01:17;8.85;;;1.67;;
61085;SDS011;46967;48.876;2.136;2024-02-26T04:03:42;8.45;;;1.55;;
61085;SDS011;46967;48.876;2.136;2024-02-26T04:06:08;5.00;;;1.27;;
61085;SDS011;46967;48.876;2.136;2024-02-26T04:08:45;9.98;;;1.50;;
61085;SDS011;46967;48.876;2.136;2024-02-26T04:11:11;7.82;;;1.42;;
61085;SDS011;46967;48.876;2.136;2024-02-26T04:13:37;5.60;;;1.20;;
61085;SDS011;46967;48.876;2.136;2024-02-26T04:16:05;13.73;;;1.80;;
61085;SDS011;46967;48.876;2.136;2024-02-26T04:18:31;9.93;;;2.08;;
61085;SDS011;46967;48.876;2.136;2024-02-26T04:20:57;3.33;;;1.10;;
61085;SDS011;46967;48.876;2.136;2024-02-26T04:23:23;5.60;;;1.45;;
61085;SDS011;46967;48.876;2.136;2024-02-26T04:25:48;9.48;;;1.40;;
61085;SDS011;46967;48.876;2.136;2024-02-26T04:28:14;8.40;;;1.33;;
61085;SDS011;46967;48.876;2.136;2024-02-26T04:30:39;8.52;;;1.60;;
61085;SDS011;46967;48.876;2.136;2024-02-26T04:33:04;10.02;;;1.48;;
61085;SDS011;46967;48.876;2.136;2024-02-26T04:35:30;9.73;;;1.90;;
61085;SDS011;46967;48.876;2.136;2024-02-26T04:37:55;3.72;;;1.30;;
61085;SDS011;46967;48.876;2.136;2024-02-26T04:40:21;4.57;;;1.30;;
61085;SDS011;46967;48.876;2.136;2024-02-26T04:42:46;8.63;;;1.63;;
61085;SDS011;46967;48.876;2.136;2024-02-26T04:45:12;4.90;;;1.30;;
61085;SDS011;46967;48.876;2.136;2024-02-26T04:47:37;5.47;;;1.38;;
61085;SDS011;46967;48.876;2.136;2024-02-26T04:50:03;4.28;;;1.60;;
61085;SDS011;46967;48.876;2.136;2024-02-26T04:52:28;4.68;;;1.27;;
61085;SDS011;46967;48.876;2.136;2024-02-26T04:54:54;7.18;;;1.50;;
61085;SDS011;46967;48.876;2.136;2024-02-26T04:57:20;8.35;;;1.40;;
61085;SDS011;46967;48.876;2.136;2024-02-26T04:59:46;6.07;;;1.85;;
61085;SDS011;46967;48.876;2.136;2024-02-26T05:02:12;4.57;;;1.40;;
61085;SDS011;46967;48.876;2.136;2024-02-26T05:04:37;4.97;;;1.52;;
61085;SDS011;46967;48.876;2.136;2024-02-26T05:07:03;7.47;;;2.20;;
61085;SDS011;46967;48.876;2.136;2024-02-26T05:09:28;9.00;;;2.10;;
61085;SDS011;46967;48.876;2.136;2024-02-26T05:11:54;8.13;;;1.95;;
61085;SDS011;46967;48.876;2.136;2024-02-26T05:14:19;4.53;;;2.20;;
61085;SDS011;46967;48.876;2.136;2024-02-26T05:16:44;6.55;;;2.30;;
61085;SDS011;46967;48.876;2.136;2024-02-26T05:19:10;5.80;;;2.30;;
61085;SDS011;46967;48.876;2.136;2024-02-26T05:21:35;6.65;;;1.85;;
61085;SDS011;46967;48.876;2.136;2024-02-26T05:24:01;6.72;;;1.70;;
61085;SDS011;46967;48.876;2.136;2024-02-26T05:26:26;7.00;;;2.80;;
61085;SDS011;46967;48.876;2.136;2024-02-26T05:28:51;5.32;;;1.70;;
61085;SDS011;46967;48.876;2.136;2024-02-26T05:31:17;6.90;;;2.10;;
61085;SDS011;46967;48.876;2.136;2024-02-26T05:33:43;10.65;;;2.10;;
61085;SDS011;46967;48.876;2.136;2024-02-26T05:36:09;6.15;;;1.83;;
61085;SDS011;46967;48.876;2.136;2024-02-26T05:38:34;5.70;;;1.50;;
61085;SDS011;46967;48.876;2.136;2024-02-26T05:40:59;8.20;;;2.42;;
61085;SDS011;46967;48.876;2.136;2024-02-26T05:43:25;7.55;;;1.95;;
61085;SDS011;46967;48.876;2.136;2024-02-26T05:45:51;6.78;;;1.90;;
61085;SDS011;46967;48.876;2.136;2024-02-26T05:48:16;8.80;;;1.92;;
61085;SDS011;46967;48.876;2.136;2024-02-26T05:50:44;4.30;;;1.50;;
61085;SDS011;46967;48.876;2.136;2024-02-26T05:53:09;5.07;;;1.30;;
61085;SDS011;46967;48.876;2.136;2024-02-26T05:55:34;3.97;;;1.50;;
61085;SDS011;46967;48.876;2.136;2024-02-26T05:58:00;7.63;;;1.83;;
61085;SDS011;46967;48.876;2.136;2024-02-26T06:00:25;5.18;;;1.60;;
61085;SDS011;46967;48.876;2.136;2024-02-26T06:02:50;5.40;;;1.35;;
61085;SDS011;46967;48.876;2.136;2024-02-26T06:05:16;4.32;;;1.75;;
61085;SDS011;46967;48.876;2.136;2024-02-26T06:07:41;5.22;;;1.60;;
61085;SDS011;46967;48.876;2.136;2024-02-26T06:10:06;5.53;;;1.95;;
61085;SDS011;46967;48.876;2.136;2024-02-26T06:12:34;6.55;;;1.38;;
61085;SDS011;46967;48.876;2.136;2024-02-26T06:15:00;4.82;;;1.60;;
61085;SDS011;46967;48.876;2.136;2024-02-26T06:17:26;7.80;;;1.48;;
61085;SDS011;46967;48.876;2.136;2024-02-26T06:19:51;6.85;;;2.10;;
61085;SDS011;46967;48.876;2.136;2024-02-26T06:22:17;6.18;;;1.92;;
61085;SDS011;46967;48.876;2.136;2024-02-26T06:24:42;6.88;;;1.70;;
61085;SDS011;46967;48.876;2.136;2024-02-26T06:27:07;5.93;;;1.63;;
61085;SDS011;46967;48.876;2.136;2024-02-26T06:29:33;4.53;;;1.40;;
61085;SDS011;46967;48.876;2.136;2024-02-26T06:31:58;5.45;;;1.60;;
61085;SDS011;46967;48.876;2.136;2024-02-26T06:34:24;5.30;;;2.00;;
61085;SDS011;46967;48.876;2.136;2024-02-26T06:36:52;4.15;;;1.27;;
61085;SDS011;46967;48.876;2.136;2024-02-26T06:39:17;4.22;;;1.40;;
61085;SDS011;46967;48.876;2.136;2024-02-26T06:41:43;7.72;;;2.15;;
61085;SDS011;46967;48.876;2.136;2024-02-26T06:44:11;6.43;;;2.17;;
61085;SDS011;46967;48.876;2.136;2024-02-26T06:46:37;8.60;;;2.20;;
61085;SDS011;46967;48.876;2.136;2024-02-26T06:49:02;10.15;;;2.53;;
61085;SDS011;46967;48.876;2.136;2024-02-26T06:51:27;7.00;;;2.22;;
61085;SDS011;46967;48.876;2.136;2024-02-26T06:53:53;8.18;;;2.42;;
61085;SDS011;46967;48.876;2.136;2024-02-26T06:56:18;9.30;;;2.10;;
61085;SDS011;46967;48.876;2.136;2024-02-26T06:58:44;7.50;;;2.25;;
61085;SDS011;46967;48.876;2.136;2024-02-26T07:01:10;7.50;;;2.33;;
61085;SDS011;46967;48.876;2.136;2024-02-26T07:03:36;8.43;;;2.40;;
61085;SDS011;46967;48.876;2.136;2024-02-26T07:06:02;6.65;;;2.22;;
61085;SDS011;46967;48.876;2.136;2024-02-26T07:08:27;9.43;;;3.15;;
61085;SDS011;46967;48.876;2.136;2024-02-26T07:10:52;6.20;;;2.45;;
61085;SDS011;46967;48.876;2.136;2024-02-26T07:13:18;9.30;;;2.22;;
61085;SDS011;46967;48.876;2.136;2024-02-26T07:15:43;7.32;;;1.92;;
61085;SDS011;46967;48.876;2.136;2024-02-26T07:18:09;6.47;;;2.33;;
61085;SDS011;46967;48.876;2.136;2024-02-26T07:20:35;8.60;;;2.10;;
61085;SDS011;46967;48.876;2.136;2024-02-26T07:23:00;6.85;;;2.60;;
61085;SDS011;46967;48.876;2.136;2024-02-26T07:25:26;5.95;;;2.40;;
61085;SDS011;46967;48.876;2.136;2024-02-26T07:27:51;5.43;;;2.30;;
61085;SDS011;46967;48.876;2.136;2024-02-26T07:30:16;8.32;;;2.53;;
61085;SDS011;46967;48.876;2.136;2024-02-26T07:32:45;7.53;;;2.30;;
61085;SDS011;46967;48.876;2.136;2024-02-26T07:35:10;6.75;;;2.20;;
61085;SDS011;46967;48.876;2.136;2024-02-26T07:37:35;4.05;;;1.73;;
61085;SDS011;46967;48.876;2.136;2024-02-26T07:40:01;6.05;;;2.50;;
61085;SDS011;46967;48.876;2.136;2024-02-26T07:42:26;7.40;;;2.35;;
61085;SDS011;46967;48.876;2.136;2024-02-26T07:44:51;6.50;;;2.28;;
61085;SDS011;46967;48.876;2.136;2024-02-26T07:47:17;10.25;;;2.28;;
61085;SDS011;46967;48.876;2.136;2024-02-26T07:49:43;5.07;;;2.40;;
61085;SDS011;46967;48.876;2.136;2024-02-26T07:52:08;8.25;;;2.83;;
61085;SDS011;46967;48.876;2.136;2024-02-26T07:54:33;7.10;;;2.67;;
61085;SDS011;46967;48.876;2.136;2024-02-26T07:56:59;11.88;;;3.05;;
61085;SDS011;46967;48.876;2.136;2024-02-26T07:59:24;11.18;;;3.20;;
61085;SDS011;46967;48.876;2.136;2024-02-26T08:01:50;13.13;;;3.40;;
61085;SDS011;46967;48.876;2.136;2024-02-26T08:04:16;12.93;;;3.13;;
61085;SDS011;46967;48.876;2.136;2024-02-26T08:06:41;11.82;;;3.42;;
61085;SDS011;46967;48.876;2.136;2024-02-26T08:09:08;12.82;;;3.05;;
61085;SDS011;46967;48.876;2.136;2024-02-26T08:11:33;10.93;;;3.42;;
61085;SDS011;46967;48.876;2.136;2024-02-26T08:13:58;10.57;;;3.08;;
61085;SDS011;46967;48.876;2.136;2024-02-26T08:16:24;10.45;;;3.33;;
61085;SDS011;46967;48.876;2.136;2024-02-26T08:18:49;11.32;;;2.92;;
61085;SDS011;46967;48.876;2.136;2024-02-26T08:21:15;8.35;;;3.03;;
61085;SDS011;46967;48.876;2.136;2024-02-26T08:23:41;10.70;;;3.03;;
61085;SDS011;46967;48.876;2.136;2024-02-26T08:26:08;10.43;;;3.83;;
61085;SDS011;46967;48.876;2.136;2024-02-26T08:28:36;15.23;;;4.13;;
61085;SDS011;46967;48.876;2.136;2024-02-26T08:31:02;15.38;;;3.67;;
61085;SDS011;46967;48.876;2.136;2024-02-26T08:33:28;12.52;;;3.60;;
61085;SDS011;46967;48.876;2.136;2024-02-26T08:35:53;13.98;;;3.92;;
61085;SDS011;46967;48.876;2.136;2024-02-26T08:38:18;12.70;;;4.43;;
61085;SDS011;46967;48.876;2.136;2024-02-26T08:40:44;10.88;;;3.05;;
61085;SDS011;46967;48.876;2.136;2024-02-26T08:43:09;16.73;;;4.25;;
61085;SDS011;46967;48.876;2.136;2024-02-26T08:45:34;13.38;;;3.75;;
61085;SDS011;46967;48.876;2.136;2024-02-26T08:48:00;13.18;;;3.45;;
61085;SDS011;46967;48.876;2.136;2024-02-26T08:50:25;13.07;;;3.70;;
61085;SDS011;46967;48.876;2.136;2024-02-26T08:52:51;11.50;;;3.05;;
61085;SDS011;46967;48.876;2.136;2024-02-26T08:55:18;11.27;;;3.55;;
61085;SDS011;46967;48.876;2.136;2024-02-26T08:57:43;10.93;;;3.17;;
61085;SDS011;46967;48.876;2.136;2024-02-26T09:00:09;17.10;;;3.40;;
61085;SDS011;46967;48.876;2.136;2024-02-26T09:02:35;14.07;;;3.45;;
61085;SDS011;46967;48.876;2.136;2024-02-26T09:05:03;12.25;;;3.42;;
61085;SDS011;46967;48.876;2.136;2024-02-26T09:07:29;14.00;;;2.90;;
61085;SDS011;46967;48.876;2.136;2024-02-26T09:09:54;11.63;;;2.45;;
61085;SDS011;46967;48.876;2.136;2024-02-26T09:12:20;7.82;;;2.78;;
61085;SDS011;46967;48.876;2.136;2024-02-26T09:14:46;14.40;;;3.20;;
61085;SDS011;46967;48.876;2.136;2024-02-26T09:17:11;11.23;;;3.78;;
61085;SDS011;46967;48.876;2.136;2024-02-26T09:19:36;9.75;;;3.15;;
61085;SDS011;46967;48.876;2.136;2024-02-26T09:22:03;12.10;;;2.92;;
61085;SDS011;46967;48.876;2.136;2024-02-26T09:24:28;14.20;;;2.90;;
61085;SDS011;46967;48.876;2.136;2024-02-26T09:26:54;11.60;;;2.72;;
61085;SDS011;46967;48.876;2.136;2024-02-26T09:29:20;11.15;;;2.85;;
61085;SDS011;46967;48.876;2.136;2024-02-26T09:31:45;10.45;;;2.45;;
61085;SDS011;46967;48.876;2.136;2024-02-26T09:34:12;13.63;;;3.30;;
61085;SDS011;46967;48.876;2.136;2024-02-26T09:36:38;11.90;;;3.05;;
61085;SDS011;46967;48.876;2.136;2024-02-26T09:39:03;12.13;;;3.03;;
61085;SDS011;46967;48.876;2.136;2024-02-26T09:41:30;11.80;;;3.38;;
61085;SDS011;46967;48.876;2.136;2024-02-26T09:43:56;9.73;;;3.50;;
61085;SDS011;46967;48.876;2.136;2024-02-26T09:46:23;8.82;;;3.63;;
61085;SDS011;46967;48.876;2.136;2024-02-26T09:48:50;9.07;;;3.53;;
61085;SDS011;46967;48.876;2.136;2024-02-26T09:51:15;13.00;;;3.33;;
61085;SDS011;46967;48.876;2.136;2024-02-26T09:53:46;11.13;;;3.55;;
61085;SDS011;46967;48.876;2.136;2024-02-26T09:56:13;9.27;;;3.05;;
61085;SDS011;46967;48.876;2.136;2024-02-26T09:58:39;7.18;;;2.90;;
61085;SDS011;46967;48.876;2.136;2024-02-26T10:01:08;10.75;;;2.88;;
61085;SDS011;46967;48.876;2.136;2024-02-26T10:03:41;8.48;;;2.70;;
61085;SDS011;46967;48.876;2.136;2024-02-26T10:06:10;5.72;;;2.30;;
61085;SDS011;46967;48.876;2.136;2024-02-26T10:08:36;5.68;;;2.15;;
61085;SDS011;46967;48.876;2.136;2024-02-26T10:11:02;5.80;;;1.90;;
61085;SDS011;46967;48.876;2.136;2024-02-26T10:13:29;7.18;;;1.80;;
61085;SDS011;46967;48.876;2.136;2024-02-26T10:15:54;5.82;;;2.20;;
61085;SDS011;46967;48.876;2.136;2024-02-26T10:18:20;5.78;;;2.03;;
61085;SDS011;46967;48.876;2.136;2024-02-26T10:21:00;6.85;;;2.30;;
61085;SDS011;46967;48.876;2.136;2024-02-26T10:23:28;5.95;;;2.25;;
61085;SDS011;46967;48.876;2.136;2024-02-26T10:25:53;10.95;;;2.53;;
61085;SDS011;46967;48.876;2.136;2024-02-26T10:28:20;7.93;;;2.10;;
61085;SDS011;46967;48.876;2.136;2024-02-26T10:30:45;8.93;;;2.10;;
61085;SDS011;46967;48.876;2.136;2024-02-26T10:33:11;8.32;;;1.90;;
61085;SDS011;46967;48.876;2.136;2024-02-26T10:35:38;8.48;;;2.40;;
61085;SDS011;46967;48.876;2.136;2024-02-26T10:38:05;7.47;;;2.58;;
61085;SDS011;46967;48.876;2.136;2024-02-26T10:40:32;6.70;;;2.60;;
61085;SDS011;46967;48.876;2.136;2024-02-26T10:42:57;4.85;;;2.25;;
61085;SDS011;46967;48.876;2.136;2024-02-26T10:45:23;6.40;;;2.70;;
61085;SDS011;46967;48.876;2.136;2024-02-26T10:47:48;11.68;;;2.92;;
61085;SDS011;46967;48.876;2.136;2024-02-26T10:50:14;7.97;;;2.67;;
61085;SDS011;46967;48.876;2.136;2024-02-26T10:52:41;5.35;;;1.88;;
61085;SDS011;46967;48.876;2.136;2024-02-26T10:55:07;2.97;;;1.00;;
61085;SDS011;46967;48.876;2.136;2024-02-26T10:57:37;2.65;;;0.80;;
61085;SDS011;46967;48.876;2.136;2024-02-26T11:00:05;0.68;;;0.60;;
61085;SDS011;46967;48.876;2.136;2024-02-26T11:02:34;7.88;;;1.52;;
61085;SDS011;46967;48.876;2.136;2024-02-26T11:05:03;0.98;;;0.50;;
61085;SDS011;46967;48.876;2.136;2024-02-26T11:07:29;0.80;;;0.50;;
61085;SDS011;46967;48.876;2.136;2024-02-26T11:09:56;0.47;;;0.47;;
61085;SDS011;46967;48.876;2.136;2024-02-26T11:12:22;0.60;;;0.60;;
61085;SDS011;46967;48.876;2.136;2024-02-26T11:14:49;0.75;;;0.60;;
61085;SDS011;46967;48.876;2.136;2024-02-26T11:17:19;0.45;;;0.35;;
61085;SDS011;46967;48.876;2.136;2024-02-26T11:19:46;1.60;;;0.60;;
61085;SDS011;46967;48.876;2.136;2024-02-26T11:22:14;1.05;;;0.70;;
61085;SDS011;46967;48.876;2.136;2024-02-26T11:24:39;0.98;;;0.70;;
61085;SDS011;46967;48.876;2.136;2024-02-26T11:27:07;1.05;;;0.80;;
61085;SDS011;46967;48.876;2.136;2024-02-26T11:29:43;0.60;;;0.60;;
61085;SDS011;46967;48.876;2.136;2024-02-26T11:32:12;0.60;;;0.40;;
61085;SDS011;46967;48.876;2.136;2024-02-26T11:34:38;1.25;;;0.70;;
61085;SDS011;46967;48.876;2.136;2024-02-26T11:37:25;0.60;;;0.60;;
61085;SDS011;46967;48.876;2.136;2024-02-26T11:39:51;0.40;;;0.40;;
61085;SDS011;46967;48.876;2.136;2024-02-26T11:42:17;1.30;;;0.50;;
61085;SDS011;46967;48.876;2.136;2024-02-26T11:44:43;0.73;;;0.40;;
61085;SDS011;46967;48.876;2.136;2024-02-26T11:47:21;0.50;;;0.50;;
61085;SDS011;46967;48.876;2.136;2024-02-26T11:49:48;0.50;;;0.50;;
61085;SDS011;46967;48.876;2.136;2024-02-26T11:52:14;0.95;;;0.60;;
61085;SDS011;46967;48.876;2.136;2024-02-26T11:57:28;0.85;;;0.70;;
61085;SDS011;46967;48.876;2.136;2024-02-26T12:02:41;1.42;;;0.60;;
61085;SDS011;46967;48.876;2.136;2024-02-26T12:05:11;1.50;;;0.88;;
61085;SDS011;46967;48.876;2.136;2024-02-26T12:07:44;1.77;;;0.77;;
61085;SDS011;46967;48.876;2.136;2024-02-26T12:10:26;1.35;;;0.70;;
61085;SDS011;46967;48.876;2.136;2024-02-26T12:13:00;0.75;;;0.43;;
61085;SDS011;46967;48.876;2.136;2024-02-26T12:15:37;0.82;;;0.63;;
61085;SDS011;46967;48.876;2.136;2024-02-26T12:18:04;0.70;;;0.70;;
61085;SDS011;46967;48.876;2.136;2024-02-26T12:20:32;0.52;;;0.52;;
61085;SDS011;46967;48.876;2.136;2024-02-26T12:22:57;1.70;;;0.70;;
61085;SDS011;46967;48.876;2.136;2024-02-26T12:25:23;0.95;;;0.70;;
61085;SDS011;46967;48.876;2.136;2024-02-26T12:27:52;0.73;;;0.60;;
61085;SDS011;46967;48.876;2.136;2024-02-26T12:30:18;1.83;;;0.60;;
61085;SDS011;46967;48.876;2.136;2024-02-26T12:32:44;1.27;;;0.65;;
61085;SDS011;46967;48.876;2.136;2024-02-26T12:35:10;0.70;;;0.50;;
61085;SDS011;46967;48.876;2.136;2024-02-26T12:37:35;0.47;;;0.47;;
61085;SDS011;46967;48.876;2.136;2024-02-26T12:40:03;0.55;;;0.50;;
61085;SDS011;46967;48.876;2.136;2024-02-26T12:42:31;1.15;;;0.60;;
61085;SDS011;46967;48.876;2.136;2024-02-26T12:44:58;1.50;;;1.13;;
61085;SDS011;46967;48.876;2.136;2024-02-26T12:47:23;0.65;;;0.65;;
61085;SDS011;46967;48.876;2.136;2024-02-26T12:49:49;0.75;;;0.70;;
61085;SDS011;46967;48.876;2.136;2024-02-26T12:52:14;1.25;;;0.80;;
61085;SDS011;46967;48.876;2.136;2024-02-26T12:54:41;0.65;;;0.60;;
61085;SDS011;46967;48.876;2.136;2024-02-26T12:57:08;1.10;;;0.70;;
61085;SDS011;46967;48.876;2.136;2024-02-26T12:59:34;0.93;;;0.80;;
61085;SDS011;46967;48.876;2.136;2024-02-26T13:02:01;2.15;;;0.77;;
61085;SDS011;46967;48.876;2.136;2024-02-26T13:04:28;0.80;;;0.70;;
61085;SDS011;46967;48.876;2.136;2024-02-26T13:06:54;1.17;;;0.90;;
61085;SDS011;46967;48.876;2.136;2024-02-26T13:09:20;0.98;;;0.88;;
61085;SDS011;46967;48.876;2.136;2024-02-26T13:11:52;1.02;;;0.80;;
61085;SDS011;46967;48.876;2.136;2024-02-26T13:14:19;0.98;;;0.82;;
61085;SDS011;46967;48.876;2.136;2024-02-26T13:16:57;3.07;;;0.90;;
61085;SDS011;46967;48.876;2.136;2024-02-26T13:19:23;1.73;;;1.10;;
61085;SDS011;46967;48.876;2.136;2024-02-26T13:21:48;4.03;;;1.35;;
61085;SDS011;46967;48.876;2.136;2024-02-26T13:24:14;2.03;;;1.00;;
61085;SDS011;46967;48.876;2.136;2024-02-26T13:26:39;1.15;;;0.98;;
61085;SDS011;46967;48.876;2.136;2024-02-26T13:29:05;1.45;;;0.80;;
61085;SDS011;46967;48.876;2.136;2024-02-26T13:31:30;2.85;;;1.02;;
61085;SDS011;46967;48.876;2.136;2024-02-26T13:33:56;1.13;;;0.82;;
61085;SDS011;46967;48.876;2.136;2024-02-26T13:36:22;1.27;;;0.80;;
61085;SDS011;46967;48.876;2.136;2024-02-26T13:38:53;1.77;;;0.68;;
61085;SDS011;46967;48.876;2.136;2024-02-26T13:41:19;0.95;;;0.68;;
61085;SDS011;46967;48.876;2.136;2024-02-26T13:43:45;3.08;;;1.00;;
61085;SDS011;46967;48.876;2.136;2024-02-26T13:46:11;2.15;;;0.90;;
61085;SDS011;46967;48.876;2.136;2024-02-26T13:48:38;1.67;;;1.00;;
61085;SDS011;46967;48.876;2.136;2024-02-26T13:51:04;2.05;;;0.90;;
61085;SDS011;46967;48.876;2.136;2024-02-26T13:53:29;1.80;;;0.90;;
61085;SDS011;46967;48.876;2.136;2024-02-26T13:55:55;1.77;;;1.00;;
61085;SDS011;46967;48.876;2.136;2024-02-26T13:58:20;1.55;;;1.20;;
61085;SDS011;46967;48.876;2.136;2024-02-26T14:00:48;1.10;;;0.95;;
61085;SDS011;46967;48.876;2.136;2024-02-26T14:03:14;1.63;;;1.10;;
61085;SDS011;46967;48.876;2.136;2024-02-26T14:05:39;1.80;;;0.90;;
61085;SDS011;46967;48.876;2.136;2024-02-26T14:08:06;0.80;;;0.80;;
61085;SDS011;46967;48.876;2.136;2024-02-26T14:10:31;1.50;;;1.10;;
61085;SDS011;46967;48.876;2.136;2024-02-26T14:12:57;1.35;;;1.00;;
61085;SDS011;46967;48.876;2.136;2024-02-26T14:15:23;0.85;;;0.73;;
61085;SDS011;46967;48.876;2.136;2024-02-26T14:17:50;1.27;;;0.80;;
61085;SDS011;46967;48.876;2.136;2024-02-26T14:20:21;2.00;;;0.77;;
61085;SDS011;46967;48.876;2.136;2024-02-26T14:22:48;1.23;;;0.95;;
61085;SDS011;46967;48.876;2.136;2024-02-26T14:25:14;0.88;;;0.75;;
61085;SDS011;46967;48.876;2.136;2024-02-26T14:27:39;1.42;;;1.00;;
61085;SDS011;46967;48.876;2.136;2024-02-26T14:30:05;1.27;;;1.00;;
61085;SDS011;46967;48.876;2.136;2024-02-26T14:32:31;1.10;;;0.98;;
61085;SDS011;46967;48.876;2.136;2024-02-26T14:35:00;1.27;;;0.70;;
61085;SDS011;46967;48.876;2.136;2024-02-26T14:37:25;1.42;;;1.00;;
61085;SDS011;46967;48.876;2.136;2024-02-26T14:39:51;0.70;;;0.70;;
61085;SDS011;46967;48.876;2.136;2024-02-26T14:42:17;1.35;;;1.00;;
61085;SDS011;46967;48.876;2.136;2024-02-26T14:44:43;2.42;;;0.98;;